Time;durP1;ratioP1;P1;durP2;ratioP2;P2;SDS_P1;SDS_P2;PMS_P1;PMS_P2;Temp;Humidity;BMP_temperature;BMP_pressure;BME280_temperature;BME280_humidity;BME280_pressure;Samples;Min_cycle;Max_cycle;Signal;HPM_P1;HPM_P2
2022/06/08 00:00:34;;;;;;;3.42;1.40;;;17.30;99.90;;;;;;5035078;28;20180;-79
2022/06/08 00:03:13;;;;;;;2.10;1.20;;;17.20;99.90;;;;;;5034758;28;20160;-81
2022/06/08 00:05:38;;;;;;;6.90;1.48;;;17.20;99.90;;;;;;5034634;28;20172;-80
2022/06/08 00:08:04;;;;;;;8.00;1.70;;;17.30;99.90;;;;;;5034267;28;20171;-81
2022/06/08 00:10:30;;;;;;;1.88;1.55;;;17.20;99.90;;;;;;5034890;28;20195;-78
2022/06/08 00:12:56;;;;;;;3.75;1.42;;;17.10;99.90;;;;;;5035179;28;20171;-81
2022/06/08 00:15:22;;;;;;;2.78;1.73;;;17.10;99.90;;;;;;5035082;28;20178;-80
2022/06/08 00:17:48;;;;;;;3.67;1.95;;;17.10;99.90;;;;;;5034955;28;20199;-82
2022/06/08 00:20:14;;;;;;;4.15;1.58;;;17.20;99.90;;;;;;5034726;28;20188;-80
2022/06/08 00:22:40;;;;;;;4.97;1.92;;;17.20;99.90;;;;;;5035198;28;20243;-79
2022/06/08 00:25:07;;;;;;;4.05;1.48;;;17.20;99.90;;;;;;5034796;28;20188;-79
2022/06/08 00:27:33;;;;;;;5.18;1.45;;;16.90;99.90;;;;;;5034549;28;20196;-80
2022/06/08 00:30:00;;;;;;;4.65;1.60;;;16.90;99.90;;;;;;5034506;28;20279;-79
2022/06/08 00:32:25;;;;;;;2.65;1.58;;;16.90;99.90;;;;;;5034771;28;20656;-82
2022/06/08 00:34:51;;;;;;;5.57;1.40;;;16.90;99.90;;;;;;5034569;28;20195;-81
2022/06/08 00:37:17;;;;;;;2.65;1.50;;;17.00;99.90;;;;;;5034451;28;20198;-82
2022/06/08 00:39:42;;;;;;;8.88;1.38;;;17.00;99.90;;;;;;5034011;28;20703;-79
2022/06/08 00:42:12;;;;;;;3.42;1.65;;;17.00;99.90;;;;;;5033123;28;20632;-83
2022/06/08 00:44:45;;;;;;;3.03;1.73;;;17.10;99.90;;;;;;5033238;28;20535;-81
2022/06/08 00:47:16;;;;;;;2.17;1.45;;;17.20;99.90;;;;;;5034212;28;20519;-80
2022/06/08 00:49:47;;;;;;;8.25;2.20;;;17.20;99.90;;;;;;5034148;28;20199;-83
2022/06/08 00:52:14;;;;;;;5.20;1.65;;;17.00;99.90;;;;;;5034209;28;20160;-79
2022/06/08 00:54:43;;;;;;;3.83;1.75;;;16.80;99.90;;;;;;5033897;28;20167;-83
2022/06/08 00:57:19;;;;;;;4.15;2.35;;;16.90;99.90;;;;;;5033963;28;20253;-78
2022/06/08 01:00:00;;;;;;;3.90;1.75;;;16.90;99.90;;;;;;5033884;28;20664;-83
2022/06/08 01:02:25;;;;;;;3.67;2.60;;;17.00;99.90;;;;;;5034092;28;20168;-80
2022/06/08 01:05:11;;;;;;;2.53;1.90;;;16.90;99.90;;;;;;5033539;28;20251;-81
2022/06/08 01:07:37;;;;;;;3.53;1.73;;;16.80;99.90;;;;;;5033575;28;20171;-78
2022/06/08 01:10:03;;;;;;;3.22;1.35;;;16.80;99.90;;;;;;5033914;28;20188;-79
2022/06/08 01:12:29;;;;;;;4.40;1.52;;;16.90;99.90;;;;;;5034164;28;20175;-81
2022/06/08 01:14:54;;;;;;;3.83;1.67;;;16.90;99.90;;;;;;5033922;28;20527;-82
2022/06/08 01:17:20;;;;;;;2.00;1.88;;;16.80;99.90;;;;;;5033736;28;20164;-82
2022/06/08 01:19:48;;;;;;;3.50;1.80;;;16.90;99.90;;;;;;5032930;28;20529;-81
2022/06/08 01:22:17;;;;;;;5.65;1.70;;;16.60;99.90;;;;;;5033888;28;20172;-82
2022/06/08 01:24:50;;;;;;;4.70;1.60;;;16.60;99.90;;;;;;5032343;28;20194;-81
2022/06/08 01:27:25;;;;;;;4.65;1.58;;;16.40;99.90;;;;;;5033885;28;20171;-80
2022/06/08 01:30:02;;;;;;;4.80;1.92;;;16.30;99.90;;;;;;5033521;28;20191;-80
2022/06/08 01:32:33;;;;;;;3.80;1.83;;;16.30;99.90;;;;;;5033623;28;20170;-83
2022/06/08 01:35:04;;;;;;;4.32;1.90;;;16.30;99.90;;;;;;5033594;28;20640;-83
2022/06/08 01:37:57;;;;;;;5.78;1.83;;;16.30;99.90;;;;;;5033135;28;20172;-79
2022/06/08 01:40:41;;;;;;;3.90;1.58;;;16.30;99.90;;;;;;5032614;28;20548;-81
2022/06/08 01:43:15;;;;;;;5.13;1.60;;;16.30;99.90;;;;;;5033200;28;20633;-82
2022/06/08 01:45:55;;;;;;;4.43;1.77;;;16.50;99.90;;;;;;5033310;28;20164;-79
2022/06/08 01:48:38;;;;;;;8.43;1.75;;;16.60;99.90;;;;;;5033149;28;20175;-81
2022/06/08 01:51:58;;;;;;;1.73;1.63;;;16.80;99.90;;;;;;5032782;28;20270;-78
2022/06/08 01:55:00;;;;;;;4.82;1.67;;;16.50;99.90;;;;;;4972523;28;20225;-79
2022/06/08 01:57:34;;;;;;;2.15;1.65;;;16.40;99.90;;;;;;4972013;28;20193;-81
2022/06/08 02:00:07;;;;;;;5.22;2.05;;;16.50;99.90;;;;;;5025881;28;20231;-79
2022/06/08 02:02:54;;;;;;;2.47;1.67;;;16.50;99.90;;;;;;5033056;28;20167;-81
2022/06/08 02:05:45;;;;;;;2.55;1.90;;;16.60;99.90;;;;;;5032705;28;20251;-81
2022/06/08 02:08:50;;;;;;;2.30;1.75;;;16.50;99.90;;;;;;5031785;28;20297;-81
2022/06/08 02:11:37;;;;;;;2.15;1.80;;;16.30;99.90;;;;;;4971754;28;20185;-83
2022/06/08 02:14:12;;;;;;;5.93;2.20;;;16.20;99.90;;;;;;5030947;28;20282;-80
2022/06/08 02:17:00;;;;;;;2.20;1.98;;;16.20;99.90;;;;;;5033048;28;20171;-80
2022/06/08 02:19:43;;;;;;;2.65;2.13;;;16.30;99.90;;;;;;5032819;28;20298;-83
2022/06/08 02:22:16;;;;;;;8.38;2.00;;;16.30;99.90;;;;;;5031229;28;20172;-79
2022/06/08 02:25:09;;;;;;;4.53;1.65;;;16.40;99.90;;;;;;5031305;28;20179;-80
2022/06/08 02:27:40;;;;;;;2.17;1.95;;;16.40;99.90;;;;;;5032593;28;20233;-79
2022/06/08 02:30:15;;;;;;;2.78;2.10;;;16.40;99.90;;;;;;5032346;28;20190;-81
2022/06/08 02:35:54;;;;;;;2.85;2.28;;;16.30;99.90;;;;;;5033176;28;20195;-81
2022/06/08 02:38:24;;;;;;;5.30;2.42;;;16.40;99.90;;;;;;5032450;28;20241;-81
2022/06/08 02:40:55;;;;;;;7.70;2.08;;;16.40;99.90;;;;;;5032483;28;20694;-82
2022/06/08 02:43:26;;;;;;;2.55;2.35;;;16.30;99.90;;;;;;5032305;28;20190;-80
2022/06/08 02:46:06;;;;;;;5.20;3.13;;;16.40;99.90;;;;;;5032628;28;20171;-80
2022/06/08 02:48:33;;;;;;;9.23;2.83;;;16.50;99.90;;;;;;5032509;28;20170;-80
2022/06/08 02:50:59;;;;;;;6.30;2.72;;;16.70;99.90;;;;;;5032375;28;20916;-79
2022/06/08 02:53:28;;;;;;;6.80;2.35;;;16.70;99.90;;;;;;5032073;28;20174;-81
2022/06/08 02:56:15;;;;;;;3.03;2.50;;;16.80;99.90;;;;;;5032676;28;20172;-77
2022/06/08 02:58:49;;;;;;;5.25;2.10;;;16.90;99.90;;;;;;5032507;28;20211;-82
2022/06/08 03:01:31;;;;;;;5.25;2.30;;;16.90;99.90;;;;;;5032660;28;20168;-82
2022/06/08 03:04:04;;;;;;;7.53;2.38;;;17.00;99.90;;;;;;5031325;28;20183;-82
2022/06/08 03:06:37;;;;;;;7.20;2.78;;;17.10;99.90;;;;;;5032424;28;20249;-79
2022/06/08 03:09:06;;;;;;;3.65;2.45;;;17.10;99.90;;;;;;5032350;28;20183;-79
2022/06/08 03:11:36;;;;;;;4.72;2.22;;;17.20;99.90;;;;;;5032235;28;20234;-81
2022/06/08 03:14:07;;;;;;;8.52;2.35;;;17.20;99.90;;;;;;5032464;28;20168;-79
2022/06/08 03:16:41;;;;;;;5.20;2.45;;;17.10;99.90;;;;;;5032139;28;20174;-81
2022/06/08 03:19:08;;;;;;;5.22;2.40;;;17.00;99.90;;;;;;5031003;28;20269;-80
2022/06/08 03:21:34;;;;;;;4.13;2.60;;;17.00;99.90;;;;;;5032153;28;20176;-79
2022/06/08 03:24:00;;;;;;;9.77;2.22;;;16.90;99.90;;;;;;5032198;28;20575;-80
2022/06/08 03:26:34;;;;;;;6.07;2.40;;;16.80;99.90;;;;;;5032037;28;20637;-83
2022/06/08 03:28:59;;;;;;;4.30;2.90;;;16.80;99.90;;;;;;5030785;28;20585;-81
2022/06/08 03:31:25;;;;;;;7.97;2.45;;;16.80;99.90;;;;;;5031774;28;20161;-80
2022/06/08 03:33:51;;;;;;;3.67;2.35;;;16.90;99.90;;;;;;5031539;28;20172;-81
2022/06/08 03:36:16;;;;;;;4.88;2.60;;;16.70;99.90;;;;;;5032086;28;20213;-83
2022/06/08 03:38:42;;;;;;;3.85;2.40;;;16.90;99.90;;;;;;5031989;28;20239;-83
2022/06/08 03:41:08;;;;;;;2.10;1.77;;;16.80;99.90;;;;;;5031794;28;20164;-81
2022/06/08 03:43:33;;;;;;;5.50;2.42;;;17.00;99.90;;;;;;5035229;28;20176;-82
2022/06/08 03:46:02;;;;;;;3.58;2.22;;;17.00;99.90;;;;;;5035382;28;20179;-82
2022/06/08 03:48:28;;;;;;;8.73;1.90;;;17.00;99.90;;;;;;5034103;28;20183;-78
2022/06/08 03:50:57;;;;;;;1.75;1.63;;;16.90;99.90;;;;;;5034608;28;20183;-83
2022/06/08 03:53:27;;;;;;;4.03;1.75;;;16.80;99.90;;;;;;5035398;28;20206;-81
2022/06/08 03:55:53;;;;;;;3.28;2.10;;;17.00;99.90;;;;;;5035551;28;20164;-80
2022/06/08 03:58:20;;;;;;;5.43;1.85;;;17.00;99.90;;;;;;5033833;28;20207;-81
2022/06/08 04:00:47;;;;;;;1.92;1.60;;;17.10;99.90;;;;;;5035214;28;20535;-81
2022/06/08 04:03:14;;;;;;;13.50;1.85;;;16.90;99.90;;;;;;5035311;28;20172;-81
2022/06/08 04:05:39;;;;;;;5.47;1.63;;;16.90;99.90;;;;;;5034978;28;20164;-79
2022/06/08 04:08:05;;;;;;;3.22;1.60;;;17.00;99.90;;;;;;5035324;28;20221;-83
2022/06/08 04:10:32;;;;;;;4.85;2.10;;;17.00;99.90;;;;;;5034982;28;20196;-80
2022/06/08 04:12:58;;;;;;;4.10;1.40;;;17.10;99.90;;;;;;5034874;28;20179;-79
2022/06/08 04:15:42;;;;;;;3.50;1.40;;;17.10;99.90;;;;;;5034901;28;20196;-79
2022/06/08 04:18:21;;;;;;;12.10;1.67;;;17.20;99.90;;;;;;5033528;28;20212;-77
2022/06/08 04:20:50;;;;;;;4.43;1.60;;;17.30;99.90;;;;;;5034646;28;20251;-78
2022/06/08 04:23:18;;;;;;;7.18;1.60;;;17.40;99.90;;;;;;5033571;28;20255;-80
2022/06/08 04:25:44;;;;;;;3.75;1.60;;;17.40;99.90;;;;;;5034454;28;20207;-78
2022/06/08 04:28:10;;;;;;;2.33;1.30;;;17.50;99.90;;;;;;5034504;28;20250;-82
2022/06/08 04:30:36;;;;;;;5.18;1.73;;;17.30;99.90;;;;;;5033355;28;20274;-83
2022/06/08 04:33:03;;;;;;;2.65;1.67;;;17.30;99.90;;;;;;5034762;28;20176;-84
2022/06/08 04:35:29;;;;;;;10.52;1.63;;;17.30;99.90;;;;;;5034689;28;20233;-80
2022/06/08 04:37:55;;;;;;;1.88;1.30;;;17.30;99.90;;;;;;5034251;28;20652;-80
2022/06/08 04:40:21;;;;;;;6.10;1.40;;;17.30;99.90;;;;;;5034288;28;20191;-80
2022/06/08 04:42:48;;;;;;;6.47;1.50;;;17.30;99.90;;;;;;5034439;28;20629;-83
2022/06/08 04:45:14;;;;;;;3.15;1.38;;;17.40;99.90;;;;;;5034058;28;20179;-82
2022/06/08 04:47:40;;;;;;;13.73;1.65;;;17.30;99.90;;;;;;5034038;28;20179;-80
2022/06/08 04:50:07;;;;;;;1.58;1.38;;;17.30;99.90;;;;;;5034233;28;20274;-80
2022/06/08 04:52:33;;;;;;;2.97;1.38;;;17.40;99.90;;;;;;5034090;28;20246;-82
2022/06/08 04:54:59;;;;;;;5.32;1.50;;;17.40;99.90;;;;;;5034320;28;20254;-83
2022/06/08 04:57:25;;;;;;;12.02;1.45;;;17.40;99.90;;;;;;5034016;28;20317;-80
2022/06/08 04:59:51;;;;;;;8.50;1.40;;;17.60;99.90;;;;;;5033654;28;20283;-83
2022/06/08 05:02:42;;;;;;;3.42;1.40;;;17.60;99.90;;;;;;5033305;28;20510;-84
2022/06/08 05:05:05;;;;;;;8.82;1.60;;;17.60;99.90;;;;;;5033799;28;20176;-80
2022/06/08 05:07:30;;;;;;;4.03;1.38;;;17.50;99.90;;;;;;5034009;28;20192;-81
2022/06/08 05:09:56;;;;;;;8.15;1.55;;;17.60;99.90;;;;;;5033745;28;20271;-81
2022/06/08 05:12:21;;;;;;;4.57;1.60;;;17.80;99.90;;;;;;5032156;28;20190;-80
2022/06/08 05:14:47;;;;;;;6.57;1.98;;;17.80;99.90;;;;;;5032294;28;20176;-81
2022/06/08 05:17:12;;;;;;;3.55;1.45;;;17.80;99.90;;;;;;5033354;28;20290;-80
2022/06/08 05:19:38;;;;;;;6.15;1.70;;;17.60;99.90;;;;;;5033938;28;20222;-81
2022/06/08 05:22:04;;;;;;;5.70;1.75;;;17.70;99.90;;;;;;5033402;28;20164;-78
2022/06/08 05:24:30;;;;;;;5.72;1.67;;;17.80;99.90;;;;;;5033773;28;20268;-80
2022/06/08 05:26:55;;;;;;;5.13;2.08;;;18.00;99.90;;;;;;5033620;28;20558;-80
2022/06/08 05:29:21;;;;;;;8.57;1.65;;;17.90;99.90;;;;;;5033212;28;20685;-80
2022/06/08 05:31:46;;;;;;;4.65;1.63;;;17.90;99.90;;;;;;5031584;28;20654;-79
2022/06/08 05:34:12;;;;;;;2.35;1.55;;;18.10;99.90;;;;;;5032985;28;20196;-78
2022/06/08 05:36:37;;;;;;;8.10;1.75;;;18.10;99.90;;;;;;5033186;28;20167;-82
2022/06/08 05:39:03;;;;;;;5.75;2.45;;;18.20;99.90;;;;;;5031908;28;20223;-79
2022/06/08 05:41:29;;;;;;;4.95;1.80;;;18.10;99.90;;;;;;5033104;28;20175;-78
2022/06/08 05:43:55;;;;;;;5.35;2.13;;;18.10;99.90;;;;;;5033325;28;20172;-83
2022/06/08 05:46:20;;;;;;;10.60;2.00;;;18.20;99.90;;;;;;5033330;28;20521;-82
2022/06/08 05:48:46;;;;;;;7.32;1.83;;;18.20;99.90;;;;;;5035860;28;20198;-81
2022/06/08 05:51:12;;;;;;;4.25;1.65;;;18.30;99.90;;;;;;5033620;28;20532;-83
2022/06/08 05:53:38;;;;;;;7.03;2.03;;;18.40;99.90;;;;;;5034824;28;20163;-80
2022/06/08 05:56:03;;;;;;;4.63;2.00;;;18.50;99.90;;;;;;5034345;28;20229;-80
2022/06/08 05:58:29;;;;;;;5.25;2.10;;;18.30;99.90;;;;;;5034707;28;20199;-82
2022/06/08 06:00:56;;;;;;;4.72;2.00;;;18.40;99.90;;;;;;5034881;28;20579;-80
2022/06/08 06:03:22;;;;;;;5.88;2.00;;;18.30;99.90;;;;;;5035016;28;20172;-81
2022/06/08 06:05:47;;;;;;;7.60;2.35;;;18.20;99.90;;;;;;5032873;28;20194;-81
2022/06/08 06:08:13;;;;;;;10.07;2.10;;;18.30;99.90;;;;;;5034212;28;20206;-81
2022/06/08 06:10:42;;;;;;;7.43;1.83;;;18.30;99.90;;;;;;5034870;28;20203;-86
2022/06/08 06:13:08;;;;;;;11.88;2.08;;;18.30;99.90;;;;;;5035414;28;20160;-79
2022/06/08 06:15:34;;;;;;;5.78;2.33;;;18.30;99.90;;;;;;5034856;28;20179;-82
2022/06/08 06:18:00;;;;;;;6.45;2.05;;;18.40;99.90;;;;;;5035169;28;20203;-81
2022/06/08 06:20:26;;;;;;;8.27;1.98;;;18.20;99.90;;;;;;5034048;28;20325;-83
2022/06/08 06:22:52;;;;;;;6.38;2.42;;;18.30;99.90;;;;;;5033291;28;20167;-81
2022/06/08 06:25:18;;;;;;;8.60;1.90;;;18.40;99.90;;;;;;5032455;28;20184;-83
2022/06/08 06:27:44;;;;;;;9.32;1.90;;;18.30;99.90;;;;;;5031983;28;20176;-81
2022/06/08 06:30:12;;;;;;;5.75;2.45;;;18.10;99.90;;;;;;5031013;28;20208;-82
2022/06/08 06:32:38;;;;;;;3.65;1.90;;;18.00;99.90;;;;;;5031871;28;20195;-84
2022/06/08 06:35:08;;;;;;;10.43;2.28;;;17.80;99.90;;;;;;5031906;28;20163;-86
2022/06/08 06:37:34;;;;;;;7.70;2.40;;;17.90;99.90;;;;;;5030407;28;20171;-84
2022/06/08 06:40:00;;;;;;;6.78;2.30;;;17.90;99.90;;;;;;5032364;28;20191;-84
2022/06/08 06:42:30;;;;;;;5.57;2.80;;;17.70;99.90;;;;;;5030866;28;20237;-85
2022/06/08 06:44:56;;;;;;;9.50;2.67;;;17.70;99.90;;;;;;5032284;28;20183;-82
2022/06/08 06:47:21;;;;;;;11.20;2.13;;;18.10;99.90;;;;;;5030758;28;20168;-83
2022/06/08 06:49:47;;;;;;;14.32;2.75;;;18.30;99.90;;;;;;5031598;28;20188;-84
2022/06/08 06:52:15;;;;;;;8.05;1.92;;;18.30;99.90;;;;;;5032672;28;20621;-84
2022/06/08 06:54:41;;;;;;;8.20;2.33;;;18.60;99.90;;;;;;5032648;28;20164;-85
2022/06/08 06:57:07;;;;;;;8.45;2.20;;;18.60;99.90;;;;;;5031116;28;20167;-83
2022/06/08 06:59:33;;;;;;;12.77;3.17;;;18.60;99.90;;;;;;5031307;28;20222;-78
2022/06/08 07:01:58;;;;;;;8.45;2.83;;;18.50;99.90;;;;;;5022357;28;20637;-78
2022/06/08 07:04:24;;;;;;;7.13;2.17;;;18.40;99.90;;;;;;5030147;28;20180;-77
2022/06/08 07:06:50;;;;;;;4.70;1.98;;;18.30;99.90;;;;;;5031706;28;20252;-78
2022/06/08 07:09:16;;;;;;;6.90;2.67;;;18.20;99.90;;;;;;5031395;28;20192;-81
2022/06/08 07:11:42;;;;;;;8.85;2.60;;;18.00;99.90;;;;;;5026295;28;20172;-82
2022/06/08 07:14:17;;;;;;;6.85;2.95;;;18.10;99.90;;;;;;5010966;28;20641;-80
2022/06/08 07:16:45;;;;;;;7.55;2.20;;;18.00;99.90;;;;;;5021794;28;20179;-79
2022/06/08 07:19:12;;;;;;;6.68;2.75;;;18.00;99.90;;;;;;5033354;28;20218;-82
2022/06/08 07:21:38;;;;;;;12.52;3.35;;;18.20;99.90;;;;;;5029692;28;20177;-78
2022/06/08 07:24:04;;;;;;;6.45;2.55;;;18.20;99.90;;;;;;5029346;28;20191;-79
2022/06/08 07:26:30;;;;;;;8.23;3.47;;;18.40;99.90;;;;;;5033974;28;20675;-80
2022/06/08 07:28:57;;;;;;;12.35;2.78;;;18.50;99.90;;;;;;5032528;28;20215;-80
2022/06/08 07:31:25;;;;;;;16.00;2.83;;;18.50;99.90;;;;;;5033192;28;20168;-77
2022/06/08 07:33:51;;;;;;;4.72;2.60;;;18.40;99.90;;;;;;5033556;28;20172;-80
2022/06/08 07:36:17;;;;;;;10.77;3.28;;;18.50;99.90;;;;;;5033382;28;20172;-78
2022/06/08 07:38:42;;;;;;;12.23;2.58;;;18.60;99.90;;;;;;5032561;28;20211;-77
2022/06/08 07:41:08;;;;;;;37.33;3.50;;;18.60;99.90;;;;;;5021985;28;20588;-78
2022/06/08 07:43:34;;;;;;;8.30;2.72;;;18.80;99.90;;;;;;5012591;28;20176;-77
2022/06/08 07:46:00;;;;;;;7.07;2.72;;;18.70;99.90;;;;;;5013188;28;20165;-78
2022/06/08 07:51:10;;;;;;;6.60;3.08;;;19.00;99.90;;;;;;5014328;28;20183;-79
2022/06/08 07:53:36;;;;;;;11.55;2.72;;;19.10;99.90;;;;;;5015091;28;20161;-78
2022/06/08 07:56:03;;;;;;;9.98;3.25;;;19.00;99.90;;;;;;5013666;28;20617;-77
2022/06/08 07:58:29;;;;;;;13.63;2.75;;;18.90;99.90;;;;;;5014379;28;20196;-78
2022/06/08 08:00:57;;;;;;;13.60;2.70;;;18.70;99.90;;;;;;5014252;28;20191;-78
2022/06/08 08:03:25;;;;;;;13.98;3.70;;;18.70;99.90;;;;;;5014546;28;20227;-77
2022/06/08 08:05:51;;;;;;;6.80;2.95;;;18.60;99.90;;;;;;5014401;28;20860;-78
2022/06/08 08:08:17;;;;;;;11.43;3.50;;;18.60;99.90;;;;;;5014834;28;20251;-78
2022/06/08 08:10:44;;;;;;;14.15;3.10;;;18.60;99.90;;;;;;5014716;28;20168;-79
2022/06/08 08:13:10;;;;;;;11.40;2.70;;;18.50;99.90;;;;;;5014421;28;20679;-79
2022/06/08 08:15:36;;;;;;;11.57;1.95;;;18.30;99.90;;;;;;5014372;28;20560;-79
2022/06/08 08:18:03;;;;;;;8.65;2.40;;;17.90;99.90;;;;;;5029886;28;20207;-80
2022/06/08 08:20:30;;;;;;;6.10;2.08;;;17.80;99.90;;;;;;5035316;28;20196;-79
2022/06/08 08:22:57;;;;;;;7.22;2.45;;;17.80;99.90;;;;;;5034651;28;20651;-89
2022/06/08 08:25:23;;;;;;;6.90;2.75;;;18.00;99.90;;;;;;5018155;28;20603;-87
2022/06/08 08:27:49;;;;;;;13.38;2.28;;;18.10;99.90;;;;;;5034078;28;20249;-80
2022/06/08 08:30:18;;;;;;;6.45;2.47;;;18.00;99.90;;;;;;5032563;28;20687;-87
2022/06/08 08:32:44;;;;;;;16.50;3.42;;;17.80;99.90;;;;;;5035719;28;20215;-82
2022/06/08 08:35:10;;;;;;;8.27;3.30;;;17.80;99.90;;;;;;5035276;28;20221;-81
2022/06/08 08:37:37;;;;;;;6.57;3.25;;;17.70;99.90;;;;;;5033544;28;20172;-80
2022/06/08 08:40:06;;;;;;;9.07;3.67;;;17.50;99.90;;;;;;5034403;28;20235;-81
2022/06/08 08:42:32;;;;;;;8.43;3.53;;;17.20;99.90;;;;;;5033028;28;20589;-81
2022/06/08 08:45:02;;;;;;;14.88;4.03;;;17.10;99.90;;;;;;5033250;28;20172;-82
2022/06/08 08:47:34;;;;;;;9.02;3.88;;;17.10;99.90;;;;;;5033938;28;20172;-83
2022/06/08 08:50:17;;;;;;;6.60;4.13;;;17.30;99.90;;;;;;5034293;28;20275;-82
2022/06/08 08:53:10;;;;;;;6.47;3.45;;;17.30;99.90;;;;;;5032851;28;20191;-80
2022/06/08 08:55:48;;;;;;;7.93;2.92;;;17.30;99.90;;;;;;5033869;28;20171;-83
2022/06/08 08:58:22;;;;;;;15.27;4.22;;;17.40;99.90;;;;;;5032802;28;20199;-85
2022/06/08 09:00:58;;;;;;;19.55;3.55;;;17.40;99.90;;;;;;5032789;28;20176;-83
2022/06/08 09:03:40;;;;;;;22.40;3.58;;;17.40;99.90;;;;;;5035167;28;20636;-84
2022/06/08 09:06:20;;;;;;;8.07;2.78;;;17.30;99.90;;;;;;5037431;28;20297;-84
2022/06/08 09:08:52;;;;;;;9.85;2.33;;;17.40;99.90;;;;;;5034078;28;20183;-82
2022/06/08 09:11:33;;;;;;;8.80;3.25;;;17.40;99.90;;;;;;5033071;28;20168;-82
2022/06/08 09:14:13;;;;;;;7.68;2.95;;;17.30;99.90;;;;;;5035182;28;20168;-84
2022/06/08 09:16:48;;;;;;;12.82;2.75;;;17.30;99.90;;;;;;5033725;28;20178;-86
2022/06/08 09:19:37;;;;;;;8.18;2.72;;;17.30;99.90;;;;;;5032472;28;20203;-83
2022/06/08 09:22:02;;;;;;;4.88;2.40;;;17.20;99.90;;;;;;5033955;28;20160;-85
2022/06/08 09:24:45;;;;;;;7.28;2.92;;;17.20;99.90;;;;;;5033285;28;20190;-85
2022/06/08 09:27:16;;;;;;;4.75;2.10;;;17.30;99.90;;;;;;5032095;28;20247;-83
2022/06/08 09:29:48;;;;;;;2.65;2.40;;;17.20;99.90;;;;;;5032157;28;20712;-83
2022/06/08 09:32:33;;;;;;;8.55;2.22;;;17.10;99.90;;;;;;5031268;28;20204;-81
2022/06/08 09:35:03;;;;;;;3.97;2.08;;;17.10;99.90;;;;;;5031547;28;20179;-81
2022/06/08 09:37:29;;;;;;;10.02;2.60;;;17.30;99.90;;;;;;5027896;28;20254;-81
2022/06/08 09:40:01;;;;;;;7.35;1.77;;;17.20;99.90;;;;;;5027853;28;20302;-81
2022/06/08 09:43:01;;;;;;;4.07;2.10;;;17.10;99.90;;;;;;5030686;28;20180;-81
2022/06/08 09:45:44;;;;;;;4.18;2.15;;;16.90;99.90;;;;;;5032223;28;20163;-83
2022/06/08 09:51:29;;;;;;;5.07;1.90;;;16.90;99.90;;;;;;5012701;28;20183;-81
2022/06/08 09:54:26;;;;;;;10.63;2.35;;;17.00;99.90;;;;;;5012766;28;20172;-81
2022/06/08 09:57:02;;;;;;;8.93;2.22;;;16.80;99.90;;;;;;5011262;28;20168;-81
2022/06/08 09:59:55;;;;;;;7.47;1.95;;;17.00;99.90;;;;;;5030508;28;20215;-81
2022/06/08 10:02:33;;;;;;;4.65;1.55;;;17.00;99.90;;;;;;5031444;28;20187;-83
2022/06/08 10:05:17;;;;;;;4.00;1.40;;;17.00;99.90;;;;;;5030458;28;20517;-83
2022/06/08 10:08:02;;;;;;;4.47;1.42;;;17.00;99.90;;;;;;5031384;28;20175;-83
2022/06/08 10:10:41;;;;;;;6.00;2.05;;;17.00;99.90;;;;;;5030673;28;20199;-85
2022/06/08 10:13:20;;;;;;;5.90;1.90;;;17.00;99.90;;;;;;5033088;28;20160;-86
2022/06/08 10:15:58;;;;;;;7.72;1.55;;;16.80;99.90;;;;;;5030384;28;20179;-81
2022/06/08 10:18:44;;;;;;;6.65;1.80;;;16.70;99.90;;;;;;5029290;28;20207;-81
2022/06/08 10:21:20;;;;;;;5.20;2.05;;;16.80;99.90;;;;;;5030889;28;20250;-82
2022/06/08 10:24:09;;;;;;;2.30;1.63;;;16.80;99.90;;;;;;5031100;28;20613;-82
2022/06/08 10:26:46;;;;;;;4.95;2.25;;;16.80;99.90;;;;;;5022643;28;20179;-82
2022/06/08 10:29:18;;;;;;;9.15;1.50;;;16.80;99.90;;;;;;5028916;28;20414;-83
2022/06/08 10:32:04;;;;;;;4.43;1.48;;;16.90;99.90;;;;;;5031424;28;20190;-84
2022/06/08 10:34:33;;;;;;;5.90;1.67;;;16.80;99.90;;;;;;5029580;28;20637;-82
2022/06/08 10:37:15;;;;;;;3.72;1.73;;;16.90;99.90;;;;;;5031946;28;20168;-86
2022/06/08 10:39:42;;;;;;;5.45;1.77;;;16.90;99.90;;;;;;5030804;28;20207;-82
2022/06/08 10:42:40;;;;;;;13.80;1.92;;;16.90;99.90;;;;;;5031215;28;20178;-82
2022/06/08 10:45:22;;;;;;;5.93;1.88;;;17.00;99.90;;;;;;5028985;28;20551;-81
2022/06/08 10:48:13;;;;;;;3.40;1.40;;;17.00;99.90;;;;;;5031537;28;20176;-82
2022/06/08 10:50:48;;;;;;;6.95;1.45;;;17.10;99.90;;;;;;5031971;28;20291;-82
2022/06/08 10:56:35;;;;;;;12.07;1.45;;;17.00;99.90;;;;;;5035525;28;20281;-82
2022/06/08 10:59:06;;;;;;;4.75;1.65;;;16.90;99.90;;;;;;5035112;28;20214;-81
2022/06/08 11:01:53;;;;;;;3.28;1.65;;;16.70;99.90;;;;;;5033748;28;20195;-82
2022/06/08 11:04:29;;;;;;;4.00;1.42;;;16.90;99.90;;;;;;5030847;28;20218;-80
2022/06/08 11:06:57;;;;;;;1.85;1.40;;;17.00;99.90;;;;;;5032503;28;20208;-81
2022/06/08 11:09:32;;;;;;;5.53;1.67;;;17.10;99.90;;;;;;5033774;28;20521;-80
2022/06/08 11:12:04;;;;;;;11.93;1.50;;;17.10;99.90;;;;;;5035602;28;20175;-82
2022/06/08 11:14:32;;;;;;;3.95;1.33;;;17.00;99.90;;;;;;5034200;28;20179;-82
2022/06/08 11:17:05;;;;;;;2.72;1.42;;;16.90;99.90;;;;;;5034102;28;20164;-81
2022/06/08 11:19:33;;;;;;;1.27;1.17;;;17.10;99.90;;;;;;5033400;28;20269;-82
2022/06/08 11:22:15;;;;;;;2.42;1.33;;;17.10;99.90;;;;;;5034694;28;20172;-83
2022/06/08 11:24:47;;;;;;;2.75;1.63;;;17.30;99.90;;;;;;5033665;28;20663;-86
2022/06/08 11:27:22;;;;;;;3.78;1.77;;;17.40;99.90;;;;;;5035108;28;20708;-83
2022/06/08 11:29:54;;;;;;;4.90;1.55;;;17.60;99.90;;;;;;5033366;28;20215;-82
2022/06/08 11:32:39;;;;;;;3.67;1.50;;;17.60;99.90;;;;;;5035177;28;20159;-83
2022/06/08 11:35:07;;;;;;;2.58;1.23;;;17.60;99.90;;;;;;5034617;28;20570;-82
2022/06/08 11:38:18;;;;;;;1.15;1.05;;;17.60;99.90;;;;;;5033550;28;20172;-82
2022/06/08 11:40:45;;;;;;;2.33;1.02;;;17.60;99.90;;;;;;5030247;28;20691;-80
2022/06/08 11:43:14;;;;;;;2.15;1.08;;;17.70;99.90;;;;;;5034744;28;20164;-81
2022/06/08 11:45:42;;;;;;;3.20;1.58;;;17.70;99.90;;;;;;5033737;28;20175;-79
2022/06/08 11:48:16;;;;;;;2.00;1.50;;;17.50;99.90;;;;;;5032696;28;20206;-81
2022/06/08 11:50:43;;;;;;;1.92;1.05;;;17.50;99.90;;;;;;5034057;28;20180;-80
2022/06/08 11:53:31;;;;;;;1.85;1.10;;;17.60;99.90;;;;;;5060453;22;20211;-82
2022/06/08 11:56:08;;;;;;;2.60;1.33;;;17.80;99.90;;;;;;5032842;28;20176;-80
2022/06/08 11:58:35;;;;;;;1.10;1.00;;;17.80;99.90;;;;;;5034522;28;20207;-81
2022/06/08 12:01:10;;;;;;;7.53;1.80;;;17.80;99.90;;;;;;5053337;28;20229;-81
2022/06/08 12:03:44;;;;;;;0.90;0.90;;;17.70;99.90;;;;;;5067783;28;20205;-81
2022/06/08 12:06:13;;;;;;;5.53;0.88;;;17.50;99.90;;;;;;5053206;28;20194;-81
2022/06/08 12:08:45;;;;;;;1.27;0.82;;;17.50;99.90;;;;;;5053440;28;20588;-81
2022/06/08 12:11:13;;;;;;;2.20;0.98;;;17.40;99.90;;;;;;5053173;28;20159;-81
2022/06/08 12:13:50;;;;;;;1.42;0.60;;;17.50;99.90;;;;;;5070702;28;20659;-81
2022/06/08 12:16:34;;;;;;;1.40;1.10;;;17.60;99.90;;;;;;5055007;28;20207;-82
2022/06/08 12:19:17;;;;;;;2.50;1.27;;;17.90;99.90;;;;;;5054995;28;20257;-82
2022/06/08 12:21:46;;;;;;;2.83;0.95;;;18.00;99.90;;;;;;5059848;28;20240;-81
2022/06/08 12:24:11;;;;;;;3.00;1.98;;;18.10;99.90;;;;;;5054904;28;20167;-80
2022/06/08 12:26:45;;;;;;;2.58;1.63;;;18.20;99.90;;;;;;5053977;28;20535;-81
2022/06/08 12:29:14;;;;;;;2.15;1.33;;;18.20;99.90;;;;;;5053837;28;20247;-80
2022/06/08 12:31:40;;;;;;;8.20;1.48;;;18.30;99.90;;;;;;5055709;28;20520;-81
2022/06/08 12:34:46;;;;;;;1.70;1.00;;;18.30;99.90;;;;;;5053736;28;20171;-80
2022/06/08 12:37:24;;;;;;;2.05;1.30;;;18.30;99.90;;;;;;5056014;28;20171;-81
2022/06/08 12:39:50;;;;;;;3.25;1.30;;;18.40;99.90;;;;;;5056315;28;20206;-81
2022/06/08 12:42:30;;;;;;;2.60;1.30;;;18.60;99.90;;;;;;5053260;28;20636;-81
2022/06/08 12:44:58;;;;;;;1.98;1.27;;;18.70;99.90;;;;;;5055160;28;20635;-81
2022/06/08 12:47:30;;;;;;;4.10;1.50;;;18.80;99.90;;;;;;5053664;28;20167;-81
2022/06/08 12:50:15;;;;;;;1.10;1.00;;;18.70;99.90;;;;;;5053413;28;20222;-81
2022/06/08 12:52:43;;;;;;;5.80;1.65;;;18.60;99.90;;;;;;5037739;28;20261;-81
2022/06/08 12:55:20;;;;;;;4.25;1.52;;;18.40;99.90;;;;;;5053402;28;20182;-81
2022/06/08 12:57:46;;;;;;;3.95;1.20;;;18.40;99.90;;;;;;5054194;28;20242;-80
2022/06/08 13:00:18;;;;;;;5.20;1.83;;;18.50;99.90;;;;;;5052618;28;20356;-81
2022/06/08 13:02:44;;;;;;;4.15;2.95;;;18.50;99.90;;;;;;5053692;28;20167;-81
2022/06/08 13:05:20;;;;;;;5.40;1.73;;;18.50;99.90;;;;;;5052597;28;20171;-81
2022/06/08 13:07:46;;;;;;;7.93;1.80;;;18.90;99.90;;;;;;5052730;28;20170;-81
2022/06/08 13:10:12;;;;;;;3.63;1.70;;;19.10;99.90;;;;;;5054161;28;20202;-81
2022/06/08 13:12:46;;;;;;;4.03;2.15;;;19.40;99.90;;;;;;5054720;28;20636;-81
2022/06/08 13:15:25;;;;;;;5.82;2.33;;;19.50;99.90;;;;;;5060261;28;20297;-80
2022/06/08 13:17:52;;;;;;;2.63;1.90;;;19.60;99.90;;;;;;5069710;28;20241;-79
2022/06/08 13:20:44;;;;;;;4.82;1.63;;;19.70;99.90;;;;;;5068876;28;20205;-80